To NAV CANADA Home Page Login to a new session Search on AWWS site Feedback and Comments Disclaimer Vers la page française équivalente Tips FAQ What's new on the site To the Forecasts and Observations / NOTAM section To "File a Flight Plan" website Publications and other links Update of the User's profile FIC Telephone Numbers My Weather Data Folder Route Weather Data Regional Weather Data Local Weather Data To the Forecasts and Observations / NOTAM section
Request Generated 04/24/2014 at 22:45:54 UTC . Weather information available at that time is displayed.

METAR/TAF

SARNIA/SARNIA (CHRIS HADFIELD)/ON    (show WxCam)

METAR CYZR 242200Z AUTO 04012KT 9SM FEW130 SCT150 09/M04 A3004 RMK
SLP178=
METAR CYZR 242100Z AUTO 04012KT 9SM FEW110 10/M05 A3005 RMK SLP182=
METAR CYZR 242000Z AUTO 03011KT 9SM OVC140 09/M04 A3008 RMK SLP191=

TAF CYZR 241938Z 2420/2502 03010KT P6SM BKN100
BECMG 2500/2502 11010KT
RMK FCST BASED ON AUTO OBS. NXT FCST WILL BE ISSUED AT 251145Z=
Your time UTC time
Weather data provided by Environment Canada and NAV CANADA